Time;durP1;ratioP1;P1;durP2;ratioP2;P2;SDS_P1;SDS_P2;PMS_P1;PMS_P2;Temp;Humidity;BMP_temperature;BMP_pressure;BME280_temperature;BME280_humidity;BME280_pressure;Samples;Min_cycle;Max_cycle;Signal;HPM_P1;HPM_P2
2022/07/31 00:00:36;;;;;;;5.60;5.10;;;;;;;16.10;90.30;100190.04;109358;1263;23838;-78
2022/07/31 00:03:07;;;;;;;6.20;5.60;;;;;;;16.11;90.43;100192.45;108912;1270;21992;-78
2022/07/31 00:05:37;;;;;;;6.10;5.50;;;;;;;16.10;90.32;100190.12;108606;1274;21994;-79
2022/07/31 00:08:10;;;;;;;6.30;5.60;;;;;;;16.09;90.32;100190.48;108474;1273;21987;-78
2022/07/31 00:10:39;;;;;;;5.10;4.50;;;;;;;16.08;90.36;100188.60;108858;1270;22454;-79
2022/07/31 00:13:09;;;;;;;5.80;5.20;;;;;;;16.09;90.33;100188.96;108996;1270;22279;-79
2022/07/31 00:15:39;;;;;;;6.20;4.80;;;;;;;16.11;90.46;100188.52;109012;1263;21986;-78
2022/07/31 00:18:09;;;;;;;9.70;7.10;;;;;;;16.10;90.42;100194.02;109170;1264;23801;-78
2022/07/31 00:20:40;;;;;;;6.00;5.30;;;;;;;16.10;90.31;100192.50;109136;1263;23047;-78
2022/07/31 00:23:10;;;;;;;6.40;5.20;;;;;;;16.10;90.39;100190.49;109498;1257;22994;-78
2022/07/31 00:25:48;;;;;;;6.00;4.60;;;;;;;16.09;90.33;100190.28;110062;1257;21975;-79
2022/07/31 00:28:17;;;;;;;6.10;4.80;;;;;;;16.10;90.29;100189.63;110069;1257;21977;-78
2022/07/31 00:30:47;;;;;;;5.80;4.80;;;;;;;16.10;90.34;100189.76;110035;1259;23670;-78
2022/07/31 00:33:16;;;;;;;10.00;9.00;;;;;;;16.11;90.36;100189.83;110442;1260;21971;-78
2022/07/31 00:35:45;;;;;;;5.60;5.00;;;;;;;16.11;90.35;100190.69;110058;1257;23390;-78
2022/07/31 00:38:20;;;;;;;8.40;5.00;;;;;;;16.11;90.30;100191.91;109159;1260;21989;-78
2022/07/31 00:40:54;;;;;;;6.00;5.20;;;;;;;16.08;90.18;100191.11;109345;1261;23038;-79
2022/07/31 00:43:26;;;;;;;5.20;4.40;;;;;;;16.06;90.19;100186.02;109624;1260;22118;-79
2022/07/31 00:46:02;;;;;;;6.30;4.80;;;;;;;16.05;90.40;100184.70;109442;1260;23064;-78
2022/07/31 00:48:40;;;;;;;6.80;5.00;;;;;;;16.06;90.39;100186.60;108997;1265;21995;-79
2022/07/31 00:51:13;;;;;;;5.00;4.50;;;;;;;16.05;90.30;100184.02;108710;1271;22907;-79
2022/07/31 00:53:45;;;;;;;4.50;4.10;;;;;;;16.03;90.33;100182.70;108757;1270;22019;-79
2022/07/31 00:56:17;;;;;;;5.50;5.00;;;;;;;16.04;90.39;100185.98;108515;1273;23651;-79
2022/07/31 00:58:46;;;;;;;4.90;4.30;;;;;;;16.04;90.42;100184.39;108877;1273;22424;-79
2022/07/31 01:01:16;;;;;;;5.90;4.90;;;;;;;16.05;90.46;100184.47;108750;1270;22071;-79
2022/07/31 01:03:50;;;;;;;8.70;4.60;;;;;;;16.06;90.45;100183.98;108932;1270;21962;-78
2022/07/31 01:06:22;;;;;;;4.60;4.20;;;;;;;16.07;90.44;100182.42;108867;1271;22358;-79
2022/07/31 01:08:51;;;;;;;5.30;4.30;;;;;;;16.08;90.48;100182.54;108846;1267;23012;-78
2022/07/31 01:12:05;;;;;;;5.40;4.70;;;;;;;16.07;90.36;100183.55;109209;1264;22851;-79
2022/07/31 01:15:00;;;;;;;5.70;4.20;;;;;;;16.03;90.32;100181.23;109435;1260;23697;-78
2022/07/31 01:17:30;;;;;;;5.50;4.70;;;;;;;16.03;90.38;100185.05;109204;1267;22434;-78
2022/07/31 01:20:04;;;;;;;7.70;4.50;;;;;;;16.05;90.46;100182.66;109116;1265;23737;-78
2022/07/31 01:23:15;;;;;;;6.30;4.10;;;;;;;16.05;90.26;100184.75;108987;1267;22205;-79
2022/07/31 01:26:49;;;;;;;14.50;4.50;;;;;;;16.00;90.24;100184.73;108871;1267;22117;-79
2022/07/31 01:29:31;;;;;;;5.00;4.30;;;;;;;15.97;90.30;100187.91;109272;1264;22099;-79
2022/07/31 01:32:17;;;;;;;5.00;4.50;;;;;;;15.97;90.39;100193.46;108929;1267;21972;-80
2022/07/31 01:35:26;;;;;;;5.10;4.60;;;;;;;15.97;90.35;100192.02;108693;1273;22947;-77
2022/07/31 01:38:02;;;;;;;4.90;4.50;;;;;;;15.97;90.31;100192.38;108789;1273;23064;-78
2022/07/31 01:40:41;;;;;;;7.30;4.50;;;;;;;15.97;90.39;100189.60;108677;1273;23641;-78
2022/07/31 01:43:18;;;;;;;5.10;4.50;;;;;;;15.97;90.39;100185.13;108915;1268;21982;-79
2022/07/31 01:45:54;;;;;;;7.70;4.70;;;;;;;15.98;90.50;100187.46;109268;1266;22120;-79
2022/07/31 01:48:26;;;;;;;4.90;4.30;;;;;;;15.98;90.32;100188.00;109134;1268;22593;-78
2022/07/31 01:50:59;;;;;;;5.70;4.50;;;;;;;15.98;90.39;100187.05;108851;1270;21992;-78
2022/07/31 01:53:30;;;;;;;6.60;4.60;;;;;;;15.98;90.38;100183.70;109170;1267;23115;-79
2022/07/31 01:56:04;;;;;;;5.30;4.00;;;;;;;15.98;90.34;100186.31;109324;1266;21993;-79
2022/07/31 01:58:40;;;;;;;7.00;5.00;;;;;;;15.97;90.43;100187.46;109229;1267;21996;-80
2022/07/31 02:01:23;;;;;;;6.30;4.90;;;;;;;15.95;90.47;100183.00;108927;1267;23928;-79
2022/07/31 02:04:01;;;;;;;5.60;4.60;;;;;;;15.95;90.25;100182.31;109065;1266;23725;-79
2022/07/31 02:06:34;;;;;;;6.40;5.10;;;;;;;15.97;90.37;100181.58;109253;1266;22096;-78
2022/07/31 02:09:06;;;;;;;5.00;4.50;;;;;;;15.97;90.40;100174.77;109480;1260;21986;-79
2022/07/31 02:11:37;;;;;;;5.40;4.90;;;;;;;15.96;90.34;100177.80;110173;1254;21963;-80
2022/07/31 02:14:23;;;;;;;4.90;4.40;;;;;;;15.94;90.33;100178.95;110000;1257;23689;-79
2022/07/31 02:16:55;;;;;;;6.00;5.00;;;;;;;15.93;90.41;100175.52;109977;1260;21971;-78
2022/07/31 02:19:38;;;;;;;10.60;5.30;;;;;;;15.92;90.30;100177.27;110092;1260;24387;-78
2022/07/31 02:22:23;;;;;;;5.50;4.80;;;;;;;15.90;90.32;100171.21;110013;1257;22037;-78
2022/07/31 02:24:55;;;;;;;5.60;5.00;;;;;;;15.90;90.38;100167.64;109197;1264;21985;-78
2022/07/31 02:27:26;;;;;;;7.90;4.60;;;;;;;15.92;90.45;100163.46;109466;1264;21978;-77
2022/07/31 02:30:16;;;;;;;5.90;4.80;;;;;;;15.89;90.39;100165.72;109291;1263;23666;-77
2022/07/31 02:32:46;;;;;;;5.20;4.60;;;;;;;15.90;90.49;100167.27;109545;1260;23692;-78
2022/07/31 02:35:17;;;;;;;5.30;4.80;;;;;;;15.90;90.46;100167.92;109607;1263;21985;-78
2022/07/31 02:37:51;;;;;;;5.80;4.90;;;;;;;15.90;90.43;100165.42;109258;1267;22932;-78
2022/07/31 02:40:23;;;;;;;5.80;4.50;;;;;;;15.92;90.53;100164.48;109125;1267;21968;-78
2022/07/31 02:42:53;;;;;;;5.20;4.60;;;;;;;15.92;90.48;100163.38;109312;1263;23325;-78
2022/07/31 02:45:23;;;;;;;4.90;4.50;;;;;;;15.91;90.43;100165.34;109810;1263;23328;-78
2022/07/31 02:47:54;;;;;;;6.20;4.70;;;;;;;15.89;90.42;100161.51;109618;1262;22934;-78
2022/07/31 02:50:23;;;;;;;4.60;4.20;;;;;;;15.88;90.39;100164.61;108964;1270;23605;-77
2022/07/31 02:52:53;;;;;;;9.90;5.20;;;;;;;15.88;90.44;100164.66;108928;1263;21965;-77
2022/07/31 02:55:23;;;;;;;5.30;4.80;;;;;;;15.89;90.47;100166.58;109278;1264;23672;-78
2022/07/31 02:57:53;;;;;;;7.10;4.50;;;;;;;15.87;90.40;100167.48;109272;1264;22040;-78
2022/07/31 03:00:25;;;;;;;5.30;4.80;;;;;;;15.87;90.45;100165.35;109247;1264;21991;-78
2022/07/31 03:02:56;;;;;;;6.00;5.40;;;;;;;15.88;90.46;100163.30;109509;1260;22173;-78
2022/07/31 03:05:26;;;;;;;7.50;5.20;;;;;;;15.88;90.54;100164.89;109678;1258;22019;-77
2022/07/31 03:07:59;;;;;;;6.00;5.40;;;;;;;15.86;90.43;100163.22;109427;1258;22026;-76
2022/07/31 03:10:31;;;;;;;5.30;4.80;;;;;;;15.85;90.47;100161.05;108947;1267;22017;-77
2022/07/31 03:13:05;;;;;;;5.10;4.60;;;;;;;15.84;90.39;100158.46;108858;1270;23058;-78
2022/07/31 03:15:39;;;;;;;5.00;4.60;;;;;;;15.84;90.44;100161.79;108754;1270;22299;-77
2022/07/31 03:18:15;;;;;;;6.10;5.10;;;;;;;15.84;90.64;100164.08;108809;1270;23195;-78
2022/07/31 03:20:46;;;;;;;5.20;4.60;;;;;;;15.84;90.66;100160.55;108764;1270;23603;-77
2022/07/31 03:23:15;;;;;;;5.30;4.90;;;;;;;15.85;90.50;100162.73;108813;1272;22001;-77
2022/07/31 03:25:53;;;;;;;5.90;5.20;;;;;;;15.85;90.30;100159.53;108560;1270;23075;-77
2022/07/31 03:28:23;;;;;;;7.80;5.00;;;;;;;15.85;90.49;100155.20;108911;1264;21993;-77
2022/07/31 03:30:54;;;;;;;6.20;4.90;;;;;;;15.85;90.53;100159.30;109362;1260;23599;-77
2022/07/31 03:33:27;;;;;;;6.00;4.80;;;;;;;15.84;90.43;100155.84;109860;1257;21976;-77
2022/07/31 03:35:57;;;;;;;4.70;4.20;;;;;;;15.82;90.48;100154.79;110216;1257;21976;-77
2022/07/31 03:38:27;;;;;;;6.30;4.10;;;;;;;15.83;90.52;100156.79;110194;1260;22022;-76
2022/07/31 03:41:14;;;;;;;4.10;3.70;;;;;;;15.85;90.45;100154.75;109828;1257;22918;-77
2022/07/31 03:43:45;;;;;;;5.90;4.10;;;;;;;15.87;90.43;100159.50;109291;1263;23745;-75
2022/07/31 03:46:21;;;;;;;5.60;4.80;;;;;;;15.90;90.33;100162.94;109471;1263;21985;-78
2022/07/31 03:48:51;;;;;;;7.40;5.30;;;;;;;15.94;90.37;100164.16;109655;1262;21982;-76
2022/07/31 03:51:22;;;;;;;5.80;4.50;;;;;;;16.01;90.44;100161.16;109560;1257;23712;-78
2022/07/31 03:53:51;;;;;;;6.90;6.10;;;;;;;16.05;90.35;100164.18;110054;1260;23634;-78
2022/07/31 03:56:45;;;;;;;5.40;4.90;;;;;;;16.06;90.30;100163.64;110096;1257;21972;-78
2022/07/31 03:59:18;;;;;;;6.00;5.00;;;;;;;16.10;90.24;100160.11;110063;1260;23040;-78
2022/07/31 04:01:50;;;;;;;7.70;6.90;;;;;;;16.15;90.35;100161.20;110029;1259;22056;-77
2022/07/31 04:04:42;;;;;;;6.10;5.50;;;;;;;16.19;90.32;100158.69;109862;1260;23497;-77
2022/07/31 04:07:12;;;;;;;6.60;6.00;;;;;;;16.23;90.31;100159.63;110007;1260;21969;-77
2022/07/31 04:09:42;;;;;;;7.80;7.00;;;;;;;16.27;90.31;100159.41;110335;1257;22851;-77
2022/07/31 04:12:14;;;;;;;6.90;6.20;;;;;;;16.30;90.15;100162.35;110389;1254;21972;-77
2022/07/31 04:14:44;;;;;;;8.80;7.30;;;;;;;16.32;90.17;100157.46;110410;1254;21977;-77
2022/07/31 04:17:13;;;;;;;6.70;6.10;;;;;;;16.37;90.23;100160.48;110246;1254;23824;-77
2022/07/31 04:19:43;;;;;;;11.00;8.40;;;;;;;16.34;90.03;100163.52;109689;1260;22104;-76
2022/07/31 04:22:13;;;;;;;7.10;6.20;;;;;;;16.36;89.96;100165.28;108845;1267;21985;-78
2022/07/31 04:24:42;;;;;;;9.60;6.50;;;;;;;16.40;90.23;100167.94;108950;1266;22746;-77
2022/07/31 04:27:29;;;;;;;8.60;7.80;;;;;;;16.36;90.15;100167.85;108613;1272;23041;-78
2022/07/31 04:29:58;;;;;;;6.90;6.30;;;;;;;16.38;90.08;100163.66;108765;1270;22000;-78
2022/07/31 04:32:28;;;;;;;8.10;7.30;;;;;;;16.40;90.06;100162.73;108177;1276;23097;-77
2022/07/31 04:35:05;;;;;;;7.20;6.50;;;;;;;16.40;90.02;100162.70;108339;1277;22519;-76
2022/07/31 04:37:34;;;;;;;7.60;6.40;;;;;;;16.40;90.01;100167.69;108256;1274;23396;-77
2022/07/31 04:40:04;;;;;;;8.00;6.10;;;;;;;16.41;90.06;100163.84;108452;1273;22780;-77
2022/07/31 04:42:36;;;;;;;7.50;6.90;;;;;;;16.43;90.18;100168.05;108127;1279;23593;-77
2022/07/31 04:45:06;;;;;;;6.30;5.70;;;;;;;16.43;90.09;100169.72;108319;1276;22453;-76
2022/07/31 04:47:37;;;;;;;6.80;6.20;;;;;;;16.45;90.17;100176.48;108355;1276;22004;-76
2022/07/31 04:50:08;;;;;;;7.00;6.00;;;;;;;16.44;90.04;100178.75;108472;1276;22008;-76
2022/07/31 04:52:37;;;;;;;6.20;5.60;;;;;;;16.42;90.12;100178.75;108440;1276;23719;-76
2022/07/31 04:55:14;;;;;;;9.00;6.30;;;;;;;16.41;90.11;100179.14;108419;1276;21998;-76
2022/07/31 04:57:43;;;;;;;6.10;5.30;;;;;;;16.42;90.27;100184.30;108403;1276;21991;-76
2022/07/31 05:00:13;;;;;;;5.90;5.40;;;;;;;16.44;90.30;100178.34;108552;1270;22030;-76
2022/07/31 05:02:42;;;;;;;7.10;5.80;;;;;;;16.45;90.28;100175.50;109076;1267;22031;-76
2022/07/31 05:05:12;;;;;;;5.40;4.90;;;;;;;16.45;90.31;100174.64;109018;1267;21988;-77
2022/07/31 05:07:44;;;;;;;7.10;5.60;;;;;;;16.44;90.20;100170.02;109135;1267;22614;-77
2022/07/31 05:13:08;;;;;;;6.20;5.00;;;;;;;16.41;90.24;100166.09;109959;1257;22032;-76
2022/07/31 05:15:37;;;;;;;7.20;4.50;;;;;;;16.41;90.38;100164.70;109862;1254;22063;-76
2022/07/31 05:18:06;;;;;;;5.00;4.40;;;;;;;16.43;90.49;100162.44;110164;1254;23053;-77
2022/07/31 05:20:54;;;;;;;5.30;3.80;;;;;;;16.38;90.30;100161.46;110683;1253;23789;-76
2022/07/31 05:23:32;;;;;;;5.50;4.60;;;;;;;16.37;90.39;100166.35;109759;1257;22980;-77
2022/07/31 05:26:09;;;;;;;6.40;4.80;;;;;;;16.37;90.42;100170.98;110381;1257;21979;-76
2022/07/31 05:28:39;;;;;;;6.70;5.80;;;;;;;16.37;90.37;100165.61;110078;1256;22993;-75
2022/07/31 05:31:11;;;;;;;6.10;4.70;;;;;;;16.38;90.43;100170.62;110015;1258;22163;-76
2022/07/31 05:33:45;;;;;;;5.30;4.40;;;;;;;16.40;90.55;100168.45;109766;1257;22396;-75
2022/07/31 05:36:16;;;;;;;4.40;4.00;;;;;;;16.41;90.55;100169.00;109589;1263;22034;-76
2022/07/31 05:38:46;;;;;;;6.40;5.00;;;;;;;16.41;90.69;100166.98;109328;1264;21986;-75
2022/07/31 05:41:37;;;;;;;5.80;5.20;;;;;;;16.38;90.55;100163.96;109784;1259;23108;-76
2022/07/31 05:44:26;;;;;;;6.70;5.90;;;;;;;16.35;90.42;100163.23;109181;1267;22001;-75
2022/07/31 05:47:22;;;;;;;5.00;4.50;;;;;;;16.40;90.61;100165.52;109193;1267;21994;-77
2022/07/31 05:50:10;;;;;;;4.40;3.90;;;;;;;16.38;90.66;100165.90;108744;1273;22009;-78
2022/07/31 05:53:35;;;;;;;6.50;4.50;;;;;;;16.35;90.35;100165.00;108334;1276;23071;-78
2022/07/31 05:57:05;;;;;;;;;;;;;;;;;;;;;
2022/07/31 06:00:33;;;;;;;4.10;3.70;;;;;;;16.30;90.25;100170.19;108433;1276;22141;-79
2022/07/31 06:03:06;;;;;;;5.30;4.30;;;;;;;16.29;90.35;100169.93;108798;1270;22060;-77
2022/07/31 06:07:44;;;;;;;5.10;4.60;;;;;;;16.31;90.30;100172.48;108501;1273;22829;-78
2022/07/31 06:10:43;;;;;;;4.00;3.60;;;;;;;16.30;90.42;100175.39;107649;1281;22010;-78
2022/07/31 06:13:22;;;;;;;4.50;4.00;;;;;;;16.37;90.57;100174.05;107865;1279;22096;-77
2022/07/31 06:16:25;;;;;;;6.20;3.90;;;;;;;16.41;90.55;100169.70;108149;1277;23682;-78
2022/07/31 06:20:56;;;;;;;;;;;;;;;;;;;;;
2022/07/31 06:23:26;;;;;;;6.20;4.00;;;;;;;16.35;90.51;100174.92;107800;1285;21994;-77
2022/07/31 06:26:42;;;;;;;6.20;3.90;;;;;;;16.40;90.60;100176.63;107235;1290;21999;-78
2022/07/31 06:29:18;;;;;;;6.00;4.10;;;;;;;16.45;90.69;100173.74;107695;1283;22020;-77
2022/07/31 06:32:21;;;;;;;4.20;3.80;;;;;;;16.43;90.56;100178.67;107707;1284;21996;-78
2022/07/31 06:35:41;;;;;;;;;;;;;;;;;;;;;
2022/07/31 06:39:04;;;;;;;4.30;3.00;;;;;;;16.42;90.56;100176.55;107893;1282;22026;-78
2022/07/31 06:42:50;;;;;;;;;;;;;;;;;;;;;
2022/07/31 06:46:24;;;;;;;;;;;;;;;;;;;;;
2022/07/31 06:49:35;;;;;;;6.50;5.90;;;;;;;16.37;90.55;100181.27;108772;1269;22790;-77
2022/07/31 06:53:15;;;;;;;10.50;4.00;;;;;;;16.38;90.43;100184.35;108374;1276;22056;-79
2022/07/31 06:56:13;;;;;;;4.90;3.50;;;;;;;16.41;90.49;100186.97;108413;1270;23136;-77
2022/07/31 06:59:08;;;;;;;11.90;4.10;;;;;;;16.46;90.57;100184.49;108219;1276;22928;-78
2022/07/31 07:03:10;;;;;;;6.20;4.00;;;;;;;16.44;90.35;100183.02;108531;1273;22214;-77
2022/07/31 07:05:41;;;;;;;6.90;3.90;;;;;;;16.47;90.59;100183.66;108339;1276;21990;-76
2022/07/31 07:08:25;;;;;;;6.10;3.20;;;;;;;16.53;90.83;100182.08;108374;1276;22017;-77
2022/07/31 07:11:20;;;;;;;5.10;3.50;;;;;;;16.52;90.57;100177.77;108437;1273;22018;-77
2022/07/31 07:14:20;;;;;;;6.50;2.80;;;;;;;16.52;90.49;100171.05;108658;1273;22679;-77
2022/07/31 07:17:07;;;;;;;3.90;3.20;;;;;;;16.52;90.61;100171.34;108393;1276;22007;-77
2022/07/31 07:20:35;;;;;;;4.80;2.70;;;;;;;16.56;90.77;100171.08;108444;1276;22024;-78
2022/07/31 07:23:09;;;;;;;3.90;3.40;;;;;;;16.56;90.76;100170.54;108209;1279;22044;-77
2022/07/31 07:26:11;;;;;;;8.80;4.30;;;;;;;16.59;90.64;100170.98;108287;1278;23065;-78
2022/07/31 07:29:17;;;;;;;3.70;2.60;;;;;;;16.60;90.71;100173.90;108302;1279;22050;-77
2022/07/31 07:31:59;;;;;;;3.90;3.50;;;;;;;16.63;90.67;100171.46;108219;1279;22113;-77
2022/07/31 07:35:51;;;;;;;;;;;;;;;;;;;;;
2022/07/31 07:38:39;;;;;;;4.10;2.50;;;;;;;16.66;90.65;100168.41;109189;1267;21975;-78
2022/07/31 07:41:37;;;;;;;6.10;3.50;;;;;;;16.66;90.52;100167.51;109041;1267;22774;-78
2022/07/31 07:44:52;;;;;;;5.10;3.40;;;;;;;16.70;90.74;100172.86;108603;1274;21990;-77
2022/07/31 07:47:40;;;;;;;5.50;2.80;;;;;;;16.78;90.98;100172.12;108706;1273;23695;-77
2022/07/31 07:51:14;;;;;;;3.50;3.20;;;;;;;16.79;90.93;100170.39;108683;1272;21962;-77
2022/07/31 07:54:42;;;;;;;4.60;2.60;;;;;;;16.80;90.78;100169.73;108397;1276;23580;-78
2022/07/31 07:57:35;;;;;;;5.80;3.20;;;;;;;16.83;90.92;100170.38;107895;1282;23810;-77
2022/07/31 08:00:24;;;;;;;5.90;2.80;;;;;;;16.90;90.99;100171.86;108102;1281;23785;-77
2022/07/31 08:03:00;;;;;;;3.60;2.90;;;;;;;16.93;91.05;100175.82;108193;1280;22239;-77
2022/07/31 08:05:49;;;;;;;3.70;2.80;;;;;;;16.98;91.00;100175.88;108073;1281;23262;-77
2022/07/31 08:08:18;;;;;;;5.90;2.70;;;;;;;17.02;90.99;100175.48;107742;1280;503054;-77
2022/07/31 08:10:47;;;;;;;5.20;3.60;;;;;;;17.05;91.01;100175.58;108104;1279;22115;-77
2022/07/31 08:13:26;;;;;;;4.70;2.70;;;;;;;17.11;91.06;100175.84;108351;1275;23100;-76
2022/07/31 08:15:55;;;;;;;4.70;3.20;;;;;;;17.14;91.26;100181.70;108418;1275;22004;-77
2022/07/31 08:18:31;;;;;;;6.00;2.40;;;;;;;17.19;91.32;100177.60;108402;1279;22387;-77
2022/07/31 08:21:00;;;;;;;3.50;3.20;;;;;;;17.22;91.20;100182.83;108594;1267;22784;-77
2022/07/31 08:23:29;;;;;;;5.90;3.00;;;;;;;17.28;91.19;100186.09;109214;1263;23593;-77
2022/07/31 08:25:59;;;;;;;3.20;2.60;;;;;;;17.35;91.40;100180.54;109309;1262;21967;-77
2022/07/31 08:28:29;;;;;;;5.80;2.90;;;;;;;17.43;91.53;100181.95;109227;1264;21971;-77
2022/07/31 08:31:00;;;;;;;9.00;8.20;;;;;;;17.47;91.41;100183.07;109251;1264;22030;-76
2022/07/31 08:33:32;;;;;;;3.50;3.10;;;;;;;17.51;91.16;100185.43;109350;1264;23680;-78
2022/07/31 08:36:03;;;;;;;7.40;4.10;;;;;;;17.56;91.40;100184.65;109020;1260;22821;-77
2022/07/31 08:38:33;;;;;;;3.70;2.80;;;;;;;17.63;91.45;100181.55;110137;1260;22762;-77
2022/07/31 08:41:39;;;;;;;3.30;2.10;;;;;;;17.67;91.37;100179.59;109835;1260;21997;-78
2022/07/31 08:44:16;;;;;;;4.10;2.50;;;;;;;17.71;91.31;100180.63;109704;1263;22139;-77
2022/07/31 08:47:09;;;;;;;8.20;2.70;;;;;;;17.76;91.50;100182.73;110150;1260;21980;-77
2022/07/31 08:49:44;;;;;;;6.90;2.80;;;;;;;17.88;91.69;100184.49;109682;1260;21993;-77
2022/07/31 08:52:24;;;;;;;3.10;2.50;;;;;;;18.00;91.96;100185.66;109618;1260;21974;-77
2022/07/31 08:55:08;;;;;;;3.50;2.40;;;;;;;18.12;91.93;100186.90;110003;1260;21976;-77
2022/07/31 08:57:53;;;;;;;4.30;2.30;;;;;;;18.21;92.03;100189.23;109154;1266;23052;-77
2022/07/31 09:00:28;;;;;;;5.50;4.40;;;;;;;18.37;92.28;100189.89;109027;1266;21990;-78
2022/07/31 09:02:59;;;;;;;4.30;3.30;;;;;;;18.52;92.45;100189.11;108748;1270;22443;-77
2022/07/31 09:05:51;;;;;;;4.40;2.20;;;;;;;18.68;92.53;100192.77;108838;1270;23026;-77
2022/07/31 09:08:22;;;;;;;3.10;2.20;;;;;;;18.79;92.50;100191.70;108764;1271;22764;-77
2022/07/31 09:11:12;;;;;;;4.50;2.50;;;;;;;18.89;92.33;100192.19;108855;1270;22000;-76
2022/07/31 09:13:57;;;;;;;4.30;2.30;;;;;;;19.02;92.44;100195.52;108747;1270;21994;-77
2022/07/31 09:16:49;;;;;;;3.40;1.80;;;;;;;19.18;92.70;100199.38;108895;1267;23413;-77
2022/07/31 09:20:41;;;;;;;4.60;2.20;;;;;;;19.33;92.63;100200.08;109155;1267;21993;-75
2022/07/31 09:28:43;;;;;;;8.40;2.10;;;;;;;19.68;93.15;100195.84;109319;1267;24042;-77
2022/07/31 09:32:15;;;;;;;4.80;1.80;;;;;;;19.92;92.90;100193.80;108483;1276;22108;-77
2022/07/31 09:35:57;;;;;;;2.80;1.90;;;;;;;20.03;92.22;100195.83;108308;1279;22098;-79
2022/07/31 09:38:43;;;;;;;4.50;2.20;;;;;;;20.02;91.47;100200.35;108269;1279;22772;-80
2022/07/31 09:41:54;;;;;;;2.80;1.80;;;;;;;19.93;90.86;100192.75;108058;1282;22015;-80
2022/07/31 09:45:25;;;;;;;3.50;1.80;;;;;;;19.85;90.50;100189.06;108016;1282;21992;-78
2022/07/31 09:48:13;;;;;;;6.00;2.20;;;;;;;19.79;90.45;100191.29;107937;1282;22028;-77
2022/07/31 09:51:53;;;;;;;2.80;1.70;;;;;;;19.80;90.60;100191.79;108037;1282;23760;-77
2022/07/31 09:55:08;;;;;;;2.60;2.00;;;;;;;19.77;90.49;100190.59;108034;1282;22955;-77
2022/07/31 09:57:57;;;;;;;5.50;1.90;;;;;;;19.78;90.48;100190.93;108436;1277;22000;-78
2022/07/31 10:00:53;;;;;;;2.90;1.90;;;;;;;19.75;90.14;100189.95;108335;1276;23602;-77
2022/07/31 10:03:54;;;;;;;;;;;;;;;;;;;;;
2022/07/31 10:06:40;;;;;;;29.60;26.70;;;;;;;19.65;90.34;100192.63;108075;1278;22455;-76
2022/07/31 10:09:12;;;;;;;6.70;2.00;;;;;;;19.69;90.48;100192.73;108704;1270;22219;-76
2022/07/31 10:12:27;;;;;;;4.10;2.10;;;;;;;19.70;90.51;100195.35;108739;1268;23774;-77
2022/07/31 10:15:08;;;;;;;4.10;2.00;;;;;;;19.74;90.55;100193.42;109101;1267;21985;-77
2022/07/31 10:17:43;;;;;;;3.10;2.00;;;;;;;19.70;90.04;100193.22;109087;1267;23720;-77
2022/07/31 10:20:20;;;;;;;4.70;3.00;;;;;;;19.68;90.26;100195.44;108815;1270;22966;-77
2022/07/31 10:23:15;;;;;;;3.30;2.10;;;;;;;19.75;90.70;100192.76;109067;1268;22132;-77
2022/07/31 10:26:09;;;;;;;4.80;2.00;;;;;;;19.78;90.41;100190.07;108835;1268;23844;-78
2022/07/31 10:28:42;;;;;;;3.20;1.50;;;;;;;19.82;90.36;100196.89;109065;1267;21973;-78
2022/07/31 10:31:13;;;;;;;5.50;1.80;;;;;;;19.86;90.31;100199.13;108805;1268;21991;-77
2022/07/31 10:33:46;;;;;;;3.90;1.70;;;;;;;19.85;90.14;100200.23;108752;1270;23721;-78
2022/07/31 10:36:50;;;;;;;7.50;2.70;;;;;;;19.87;90.26;100204.77;108848;1268;21982;-78
2022/07/31 10:40:28;;;;;;;2.70;1.50;;;;;;;19.92;90.31;100205.05;109393;1261;23667;-78
2022/07/31 10:43:56;;;;;;;3.30;1.60;;;;;;;19.93;90.13;100208.45;109806;1262;22601;-78
2022/07/31 10:46:39;;;;;;;4.00;2.20;;;;;;;19.93;89.88;100212.20;108888;1264;22846;-79
2022/07/31 10:49:43;;;;;;;3.80;2.00;;;;;;;19.96;89.80;100210.34;109298;1264;23089;-78
2022/07/31 10:52:39;;;;;;;2.90;1.80;;;;;;;19.95;89.62;100211.60;109011;1267;21993;-77
2022/07/31 10:55:24;;;;;;;4.00;1.50;;;;;;;19.91;89.26;100211.08;109300;1264;22033;-78
2022/07/31 10:58:21;;;;;;;3.10;1.40;;;;;;;19.85;88.89;100213.50;109306;1264;22383;-78
2022/07/31 11:01:08;;;;;;;2.70;1.80;;;;;;;19.79;88.85;100215.23;109221;1263;22128;-78
2022/07/31 11:04:06;;;;;;;2.30;1.40;;;;;;;19.74;88.68;100218.20;109390;1259;24892;-78
2022/07/31 11:06:54;;;;;;;3.60;1.60;;;;;;;19.74;88.83;100221.52;109986;1259;23219;-77
2022/07/31 11:09:47;;;;;;;3.40;1.60;;;;;;;19.70;88.53;100227.84;110005;1259;21986;-78
2022/07/31 11:12:33;;;;;;;2.40;1.20;;;;;;;19.65;88.54;100228.05;109291;1264;23695;-75
2022/07/31 11:15:23;;;;;;;5.10;1.90;;;;;;;19.67;88.69;100225.73;110049;1257;22083;-77
2022/07/31 11:18:23;;;;;;;2.50;1.80;;;;;;;19.69;88.69;100224.52;109246;1263;21977;-78
2022/07/31 11:21:09;;;;;;;3.10;1.10;;;;;;;19.68;88.49;100222.59;109229;1264;22091;-79
2022/07/31 11:24:20;;;;;;;2.10;1.00;;;;;;;19.67;88.43;100225.29;109097;1264;21987;-79
2022/07/31 11:26:57;;;;;;;4.70;1.40;;;;;;;19.68;88.43;100226.31;109050;1263;22444;-78
2022/07/31 11:29:35;;;;;;;3.00;1.20;;;;;;;19.70;88.39;100229.46;109327;1264;21972;-78
2022/07/31 11:32:26;;;;;;;2.80;1.70;;;;;;;19.75;88.67;100229.27;109784;1258;22144;-78
2022/07/31 11:34:59;;;;;;;2.90;1.50;;;;;;;19.83;88.53;100234.73;109970;1259;22369;-79
2022/07/31 11:37:31;;;;;;;3.00;1.30;;;;;;;19.85;88.30;100236.45;109543;1261;21987;-78
2022/07/31 11:40:21;;;;;;;2.50;1.10;;;;;;;19.91;88.20;100230.27;109342;1261;22075;-77
2022/07/31 11:42:57;;;;;;;3.20;1.40;;;;;;;20.00;88.27;100225.88;109670;1258;21985;-80
2022/07/31 11:45:54;;;;;;;1.20;0.90;;;;;;;20.06;88.15;100226.29;110032;1259;21975;-78
2022/07/31 11:48:25;;;;;;;4.30;1.70;;;;;;;20.08;87.82;100224.51;110033;1257;23044;-78
2022/07/31 11:50:57;;;;;;;3.70;1.70;;;;;;;20.17;87.98;100225.61;110172;1257;23038;-78
2022/07/31 11:53:26;;;;;;;2.30;1.10;;;;;;;20.25;87.85;100224.19;109850;1258;22273;-78
2022/07/31 11:56:00;;;;;;;5.70;1.30;;;;;;;20.31;87.45;100222.76;110417;1252;24430;-79
2022/07/31 11:58:29;;;;;;;3.70;1.30;;;;;;;20.33;87.13;100218.24;110174;1259;22120;-78
2022/07/31 12:01:02;;;;;;;3.00;1.40;;;;;;;20.40;87.36;100223.40;110194;1257;22010;-78
2022/07/31 12:03:35;;;;;;;2.30;1.30;;;;;;;20.41;86.74;100222.71;110067;1257;23118;-78
2022/07/31 12:06:11;;;;;;;3.50;1.50;;;;;;;20.45;86.57;100215.13;110047;1259;21963;-78
2022/07/31 12:09:00;;;;;;;;;;;;;;;20.48;86.13;100215.35;110197;1257;23668;-78
2022/07/31 12:11:34;;;;;;;2.50;1.60;;;;;;;20.42;85.74;100213.45;110315;1257;21991;-78
2022/07/31 12:14:06;;;;;;;3.90;1.20;;;;;;;20.49;85.85;100218.45;110153;1257;22676;-78
2022/07/31 12:16:43;;;;;;;5.60;1.50;;;;;;;20.57;85.58;100223.72;110374;1253;21980;-76
2022/07/31 12:19:27;;;;;;;3.10;1.20;;;;;;;20.61;85.11;100222.42;110485;1253;22208;-76
2022/07/31 12:22:19;;;;;;;4.10;1.30;;;;;;;20.63;84.62;100224.18;110354;1253;22294;-76
2022/07/31 12:25:01;;;;;;;3.00;1.30;;;;;;;20.65;84.17;100223.58;110614;1253;23707;-76
2022/07/31 12:27:37;;;;;;;1.50;0.90;;;;;;;20.73;84.01;100224.00;110503;1253;23699;-76
2022/07/31 12:30:18;;;;;;;2.80;1.10;;;;;;;20.85;83.57;100221.98;109951;1258;23035;-77
2022/07/31 12:32:47;;;;;;;2.60;1.00;;;;;;;20.96;83.01;100218.96;110025;1259;21970;-76
2022/07/31 12:35:16;;;;;;;2.80;1.00;;;;;;;20.96;81.68;100216.02;109334;1264;21987;-77
2022/07/31 12:37:57;;;;;;;3.20;1.00;;;;;;;20.98;81.67;100220.30;109133;1264;23556;-76
2022/07/31 12:40:28;;;;;;;2.70;1.10;;;;;;;20.92;80.74;100214.59;108875;1270;23799;-76
2022/07/31 12:42:58;;;;;;;4.40;1.00;;;;;;;20.87;80.24;100217.30;108708;1270;22347;-76
2022/07/31 12:45:37;;;;;;;3.90;0.90;;;;;;;20.89;80.26;100219.65;108786;1272;21985;-77
2022/07/31 12:48:06;;;;;;;3.70;2.10;;;;;;;20.85;79.51;100220.80;108829;1264;23072;-77
2022/07/31 12:50:37;;;;;;;2.40;0.90;;;;;;;20.79;79.24;100217.26;108523;1273;22997;-76
2022/07/31 12:53:07;;;;;;;4.30;1.10;;;;;;;20.71;78.76;100216.11;108638;1267;23330;-76